Aurora, CO

5:53 PM MDT on August 31, 2016 (GMT -0600)
Denver | | Change Station

Elev 5430 ft 39.85 °N, 104.66 °W | Updated 1 hour ago

Scattered Clouds
Scattered Clouds
80 °F
Feels Like 80 °F
N
13
Wind Variable Wind from NE
Gusts 18 mph

Today
High -- | Low -- °F
--% Chance of Precip.
Yesterday
High -- | Low -- °F
Precip. -- in
Pressure 30.01 in
Visibility 10.0 miles
Clouds Few 8000 ft
Scattered Clouds 22000 ft
Dew Point 50 °F
Humidity 35%
Rainfall 0.00 in
Snow Depth Not available.
6:26 AM 7:30 PM
Waning Crescent, 0% visible
METAR KDEN 312253Z 05011G16KT 10SM FEW080 SCT220 27/10 A3021 RMK AO2 SLP162 HZ W T02670100
Pressure 30.01 in
Visibility 10.0 miles
Clouds Few 8000 ft
Scattered Clouds 22000 ft
Dew Point 50 °F
Humidity 35%
Rainfall 0.00 in
Snow Depth Not available.
6:26 AM 7:30 PM
Waning Crescent, 0% visible
METAR KDEN 312253Z 05011G16KT 10SM FEW080 SCT220 27/10 A3021 RMK AO2 SLP162 HZ W T02670100

10-Day Weather Forecast

Almanac

Astronomy

Aug. 31, 2016 Rise Set
Actual Time
Civil Twilight
Nautical Twilight
Astronomical Twilight
Moon
Length of Visible Light
Length of Day
Tomorrow will be .
, % of the Moon is Illuminated

Today's Extremes

State Highs State Lows

Community

WunderPhotos

Upload Photos

1,936,215 photos uploaded!

WunderBlog® & News

Nearby

Air Quality

  Air Quality AQ Index Pollutant
Not available.

Snow Depth

Station Depth Elevation

Earthquake Activity

City Distance Mag. Time & Date
Minimum magnitude displayed is 2.5.

Coastal Water Temperatures

Place Temperature

Stations

Nearby Weather Stations

Station Location Temp. Windchill Dew Point Humidity Wind Precip. Elev Updated Type
                   

Watches & Warnings

There are currently no watches in effect.